sensor_id;sensor_type;location;lat;lon;timestamp;P1;durP1;ratioP1;P2;durP2;ratioP2
39454;SDS011;25155;41.890;23.446;2024-01-11T00:01:01;13.48;;;8.15;;
39454;SDS011;25155;41.890;23.446;2024-01-11T00:03:28;11.27;;;7.35;;
39454;SDS011;25155;41.890;23.446;2024-01-11T00:05:57;12.18;;;8.15;;
39454;SDS011;25155;41.890;23.446;2024-01-11T00:08:24;12.00;;;7.93;;
39454;SDS011;25155;41.890;23.446;2024-01-11T00:10:51;12.13;;;7.40;;
39454;SDS011;25155;41.890;23.446;2024-01-11T00:13:19;12.70;;;8.00;;
39454;SDS011;25155;41.890;23.446;2024-01-11T00:15:46;11.40;;;7.43;;
39454;SDS011;25155;41.890;23.446;2024-01-11T00:18:13;9.80;;;6.20;;
39454;SDS011;25155;41.890;23.446;2024-01-11T00:20:41;11.27;;;6.97;;
39454;SDS011;25155;41.890;23.446;2024-01-11T00:23:09;9.77;;;5.97;;
39454;SDS011;25155;41.890;23.446;2024-01-11T00:25:36;9.32;;;5.75;;
39454;SDS011;25155;41.890;23.446;2024-01-11T00:28:04;8.07;;;4.78;;
39454;SDS011;25155;41.890;23.446;2024-01-11T00:30:31;7.82;;;5.13;;
39454;SDS011;25155;41.890;23.446;2024-01-11T00:32:58;8.05;;;5.10;;
39454;SDS011;25155;41.890;23.446;2024-01-11T00:35:26;9.60;;;5.07;;
39454;SDS011;25155;41.890;23.446;2024-01-11T00:37:53;8.40;;;5.70;;
39454;SDS011;25155;41.890;23.446;2024-01-11T00:40:21;9.10;;;5.85;;
39454;SDS011;25155;41.890;23.446;2024-01-11T00:42:49;10.20;;;6.60;;
39454;SDS011;25155;41.890;23.446;2024-01-11T00:45:16;10.70;;;6.80;;
39454;SDS011;25155;41.890;23.446;2024-01-11T00:47:44;11.10;;;6.50;;
39454;SDS011;25155;41.890;23.446;2024-01-11T00:50:11;10.95;;;6.20;;
39454;SDS011;25155;41.890;23.446;2024-01-11T00:52:38;9.80;;;6.00;;
39454;SDS011;25155;41.890;23.446;2024-01-11T00:55:06;9.98;;;6.35;;
39454;SDS011;25155;41.890;23.446;2024-01-11T00:57:35;8.98;;;5.70;;
39454;SDS011;25155;41.890;23.446;2024-01-11T01:00:02;13.25;;;8.05;;
39454;SDS011;25155;41.890;23.446;2024-01-11T01:02:30;11.98;;;7.72;;
39454;SDS011;25155;41.890;23.446;2024-01-11T01:04:57;16.33;;;10.05;;
39454;SDS011;25155;41.890;23.446;2024-01-11T01:07:24;12.77;;;8.13;;
39454;SDS011;25155;41.890;23.446;2024-01-11T01:09:52;12.05;;;7.32;;
39454;SDS011;25155;41.890;23.446;2024-01-11T01:12:19;13.80;;;8.77;;
39454;SDS011;25155;41.890;23.446;2024-01-11T01:14:48;14.77;;;9.30;;
39454;SDS011;25155;41.890;23.446;2024-01-11T01:17:15;14.57;;;9.02;;
39454;SDS011;25155;41.890;23.446;2024-01-11T01:19:43;12.50;;;7.90;;
39454;SDS011;25155;41.890;23.446;2024-01-11T01:22:10;12.20;;;7.65;;
39454;SDS011;25155;41.890;23.446;2024-01-11T01:24:37;13.30;;;8.05;;
39454;SDS011;25155;41.890;23.446;2024-01-11T01:27:05;13.95;;;8.93;;
39454;SDS011;25155;41.890;23.446;2024-01-11T01:29:32;12.23;;;7.20;;
39454;SDS011;25155;41.890;23.446;2024-01-11T01:32:00;10.30;;;6.53;;
39454;SDS011;25155;41.890;23.446;2024-01-11T01:34:28;9.07;;;6.10;;
39454;SDS011;25155;41.890;23.446;2024-01-11T01:36:55;8.75;;;5.55;;
39454;SDS011;25155;41.890;23.446;2024-01-11T01:39:23;9.75;;;5.82;;
39454;SDS011;25155;41.890;23.446;2024-01-11T01:41:50;8.65;;;5.68;;
39454;SDS011;25155;41.890;23.446;2024-01-11T01:44:17;8.75;;;5.43;;
39454;SDS011;25155;41.890;23.446;2024-01-11T01:46:44;8.25;;;5.40;;
39454;SDS011;25155;41.890;23.446;2024-01-11T01:49:13;8.73;;;5.20;;
39454;SDS011;25155;41.890;23.446;2024-01-11T01:54:10;9.77;;;6.10;;
39454;SDS011;25155;41.890;23.446;2024-01-11T01:56:38;11.95;;;7.43;;
39454;SDS011;25155;41.890;23.446;2024-01-11T01:59:05;13.75;;;8.27;;
39454;SDS011;25155;41.890;23.446;2024-01-11T02:01:33;12.40;;;8.43;;
39454;SDS011;25155;41.890;23.446;2024-01-11T02:04:00;13.50;;;7.53;;
39454;SDS011;25155;41.890;23.446;2024-01-11T02:06:29;12.85;;;7.63;;
39454;SDS011;25155;41.890;23.446;2024-01-11T02:09:01;10.13;;;6.25;;
39454;SDS011;25155;41.890;23.446;2024-01-11T02:11:29;11.25;;;6.55;;
39454;SDS011;25155;41.890;23.446;2024-01-11T02:13:57;10.32;;;6.65;;
39454;SDS011;25155;41.890;23.446;2024-01-11T02:16:25;9.55;;;5.65;;
39454;SDS011;25155;41.890;23.446;2024-01-11T02:18:53;14.73;;;7.28;;
39454;SDS011;25155;41.890;23.446;2024-01-11T02:21:20;11.48;;;6.38;;
39454;SDS011;25155;41.890;23.446;2024-01-11T02:23:59;11.02;;;6.63;;
39454;SDS011;25155;41.890;23.446;2024-01-11T02:26:29;12.43;;;6.85;;
39454;SDS011;25155;41.890;23.446;2024-01-11T02:28:56;14.32;;;7.93;;
39454;SDS011;25155;41.890;23.446;2024-01-11T02:31:24;14.88;;;8.88;;
39454;SDS011;25155;41.890;23.446;2024-01-11T02:33:51;19.20;;;10.95;;
39454;SDS011;25155;41.890;23.446;2024-01-11T02:36:20;17.60;;;10.10;;
39454;SDS011;25155;41.890;23.446;2024-01-11T02:38:48;19.33;;;11.05;;
39454;SDS011;25155;41.890;23.446;2024-01-11T02:41:18;19.90;;;12.20;;
39454;SDS011;25155;41.890;23.446;2024-01-11T02:43:46;25.45;;;14.27;;
39454;SDS011;25155;41.890;23.446;2024-01-11T02:46:14;21.60;;;11.85;;
39454;SDS011;25155;41.890;23.446;2024-01-11T02:48:42;18.73;;;11.35;;
39454;SDS011;25155;41.890;23.446;2024-01-11T02:51:09;18.35;;;11.05;;
39454;SDS011;25155;41.890;23.446;2024-01-11T02:53:36;22.50;;;13.13;;
39454;SDS011;25155;41.890;23.446;2024-01-11T02:56:03;21.95;;;11.65;;
39454;SDS011;25155;41.890;23.446;2024-01-11T02:58:32;20.38;;;11.75;;
39454;SDS011;25155;41.890;23.446;2024-01-11T03:00:59;20.33;;;10.82;;
39454;SDS011;25155;41.890;23.446;2024-01-11T03:03:26;18.13;;;10.45;;
39454;SDS011;25155;41.890;23.446;2024-01-11T03:05:54;18.75;;;10.75;;
39454;SDS011;25155;41.890;23.446;2024-01-11T03:08:21;18.73;;;10.88;;
39454;SDS011;25155;41.890;23.446;2024-01-11T03:10:48;18.92;;;10.65;;
39454;SDS011;25155;41.890;23.446;2024-01-11T03:13:16;15.80;;;9.40;;
39454;SDS011;25155;41.890;23.446;2024-01-11T03:15:44;16.20;;;9.10;;
39454;SDS011;25155;41.890;23.446;2024-01-11T03:18:11;19.95;;;11.35;;
39454;SDS011;25155;41.890;23.446;2024-01-11T03:20:39;24.85;;;15.45;;
39454;SDS011;25155;41.890;23.446;2024-01-11T03:23:06;24.90;;;16.13;;
39454;SDS011;25155;41.890;23.446;2024-01-11T03:25:33;19.55;;;12.75;;
39454;SDS011;25155;41.890;23.446;2024-01-11T03:28:01;18.13;;;9.93;;
39454;SDS011;25155;41.890;23.446;2024-01-11T03:30:28;14.23;;;8.00;;
39454;SDS011;25155;41.890;23.446;2024-01-11T03:32:56;13.35;;;7.75;;
39454;SDS011;25155;41.890;23.446;2024-01-11T03:35:23;12.43;;;7.60;;
39454;SDS011;25155;41.890;23.446;2024-01-11T03:37:51;12.48;;;7.63;;
39454;SDS011;25155;41.890;23.446;2024-01-11T03:40:18;11.98;;;7.50;;
39454;SDS011;25155;41.890;23.446;2024-01-11T03:42:46;12.57;;;8.77;;
39454;SDS011;25155;41.890;23.446;2024-01-11T03:45:13;13.60;;;8.50;;
39454;SDS011;25155;41.890;23.446;2024-01-11T03:47:45;13.48;;;8.40;;
39454;SDS011;25155;41.890;23.446;2024-01-11T03:50:15;13.85;;;8.95;;
39454;SDS011;25155;41.890;23.446;2024-01-11T03:52:42;16.58;;;9.75;;
39454;SDS011;25155;41.890;23.446;2024-01-11T03:55:10;18.45;;;9.93;;
39454;SDS011;25155;41.890;23.446;2024-01-11T03:57:37;20.60;;;11.38;;
39454;SDS011;25155;41.890;23.446;2024-01-11T04:00:06;24.50;;;13.45;;
39454;SDS011;25155;41.890;23.446;2024-01-11T04:02:35;25.73;;;14.60;;
39454;SDS011;25155;41.890;23.446;2024-01-11T04:05:02;20.27;;;12.73;;
39454;SDS011;25155;41.890;23.446;2024-01-11T04:07:31;20.27;;;13.02;;
39454;SDS011;25155;41.890;23.446;2024-01-11T04:09:59;19.45;;;12.45;;
39454;SDS011;25155;41.890;23.446;2024-01-11T04:12:28;19.25;;;12.38;;
39454;SDS011;25155;41.890;23.446;2024-01-11T04:14:55;17.60;;;11.95;;
39454;SDS011;25155;41.890;23.446;2024-01-11T04:17:22;18.88;;;12.00;;
39454;SDS011;25155;41.890;23.446;2024-01-11T04:19:49;19.30;;;11.73;;
39454;SDS011;25155;41.890;23.446;2024-01-11T04:22:16;16.40;;;9.60;;
39454;SDS011;25155;41.890;23.446;2024-01-11T04:24:45;13.93;;;9.20;;
39454;SDS011;25155;41.890;23.446;2024-01-11T04:27:12;13.00;;;8.80;;
39454;SDS011;25155;41.890;23.446;2024-01-11T04:29:39;13.75;;;8.77;;
39454;SDS011;25155;41.890;23.446;2024-01-11T04:32:06;13.27;;;8.20;;
39454;SDS011;25155;41.890;23.446;2024-01-11T04:34:34;13.43;;;9.00;;
39454;SDS011;25155;41.890;23.446;2024-01-11T04:37:01;15.13;;;9.73;;
39454;SDS011;25155;41.890;23.446;2024-01-11T04:39:28;18.55;;;11.00;;
39454;SDS011;25155;41.890;23.446;2024-01-11T04:41:58;19.40;;;11.52;;
39454;SDS011;25155;41.890;23.446;2024-01-11T04:44:27;19.05;;;12.50;;
39454;SDS011;25155;41.890;23.446;2024-01-11T04:46:55;14.65;;;9.90;;
39454;SDS011;25155;41.890;23.446;2024-01-11T04:49:22;15.90;;;9.40;;
39454;SDS011;25155;41.890;23.446;2024-01-11T04:51:49;14.00;;;8.25;;
39454;SDS011;25155;41.890;23.446;2024-01-11T04:54:16;14.52;;;9.18;;
39454;SDS011;25155;41.890;23.446;2024-01-11T04:56:43;18.30;;;11.30;;
39454;SDS011;25155;41.890;23.446;2024-01-11T04:59:12;16.58;;;10.38;;
39454;SDS011;25155;41.890;23.446;2024-01-11T05:01:39;15.48;;;9.98;;
39454;SDS011;25155;41.890;23.446;2024-01-11T05:04:07;18.70;;;12.27;;
39454;SDS011;25155;41.890;23.446;2024-01-11T05:06:35;19.45;;;12.77;;
39454;SDS011;25155;41.890;23.446;2024-01-11T05:09:02;20.67;;;13.73;;
39454;SDS011;25155;41.890;23.446;2024-01-11T05:11:30;25.35;;;16.02;;
39454;SDS011;25155;41.890;23.446;2024-01-11T05:13:57;24.88;;;15.73;;
39454;SDS011;25155;41.890;23.446;2024-01-11T05:16:26;36.30;;;21.30;;
39454;SDS011;25155;41.890;23.446;2024-01-11T05:18:54;28.95;;;18.83;;
39454;SDS011;25155;41.890;23.446;2024-01-11T05:21:23;31.55;;;18.00;;
39454;SDS011;25155;41.890;23.446;2024-01-11T05:23:51;25.58;;;16.10;;
39454;SDS011;25155;41.890;23.446;2024-01-11T05:26:18;26.00;;;15.07;;
39454;SDS011;25155;41.890;23.446;2024-01-11T05:28:46;23.55;;;14.95;;
39454;SDS011;25155;41.890;23.446;2024-01-11T05:31:14;24.58;;;15.38;;
39454;SDS011;25155;41.890;23.446;2024-01-11T05:33:43;27.33;;;16.88;;
39454;SDS011;25155;41.890;23.446;2024-01-11T05:36:11;25.17;;;16.10;;
39454;SDS011;25155;41.890;23.446;2024-01-11T05:38:38;25.65;;;15.88;;
39454;SDS011;25155;41.890;23.446;2024-01-11T05:41:06;21.95;;;15.38;;
39454;SDS011;25155;41.890;23.446;2024-01-11T05:43:33;22.95;;;15.13;;
39454;SDS011;25155;41.890;23.446;2024-01-11T05:46:01;25.52;;;16.55;;
39454;SDS011;25155;41.890;23.446;2024-01-11T05:48:28;24.25;;;15.20;;
39454;SDS011;25155;41.890;23.446;2024-01-11T05:50:57;24.92;;;15.85;;
39454;SDS011;25155;41.890;23.446;2024-01-11T05:53:25;30.35;;;17.80;;
39454;SDS011;25155;41.890;23.446;2024-01-11T05:55:52;31.70;;;20.05;;
39454;SDS011;25155;41.890;23.446;2024-01-11T05:58:20;30.73;;;20.17;;
39454;SDS011;25155;41.890;23.446;2024-01-11T06:00:47;35.13;;;21.63;;
39454;SDS011;25155;41.890;23.446;2024-01-11T06:03:14;27.40;;;17.88;;
39454;SDS011;25155;41.890;23.446;2024-01-11T06:05:41;28.33;;;17.95;;
39454;SDS011;25155;41.890;23.446;2024-01-11T06:08:10;30.25;;;17.55;;
39454;SDS011;25155;41.890;23.446;2024-01-11T06:10:38;25.67;;;17.00;;
39454;SDS011;25155;41.890;23.446;2024-01-11T06:13:05;27.55;;;15.68;;
39454;SDS011;25155;41.890;23.446;2024-01-11T06:15:34;33.58;;;20.42;;
39454;SDS011;25155;41.890;23.446;2024-01-11T06:18:01;29.13;;;17.70;;
39454;SDS011;25155;41.890;23.446;2024-01-11T06:20:31;25.17;;;15.63;;
39454;SDS011;25155;41.890;23.446;2024-01-11T06:22:58;26.75;;;16.02;;
39454;SDS011;25155;41.890;23.446;2024-01-11T06:25:26;22.27;;;15.00;;
39454;SDS011;25155;41.890;23.446;2024-01-11T06:27:53;21.25;;;13.73;;
39454;SDS011;25155;41.890;23.446;2024-01-11T06:30:21;23.23;;;14.70;;
39454;SDS011;25155;41.890;23.446;2024-01-11T06:32:48;32.10;;;18.73;;
39454;SDS011;25155;41.890;23.446;2024-01-11T06:35:15;31.65;;;20.17;;
39454;SDS011;25155;41.890;23.446;2024-01-11T06:37:42;36.75;;;22.45;;
39454;SDS011;25155;41.890;23.446;2024-01-11T06:40:10;39.75;;;24.50;;
39454;SDS011;25155;41.890;23.446;2024-01-11T06:42:39;48.83;;;30.48;;
39454;SDS011;25155;41.890;23.446;2024-01-11T06:45:06;75.05;;;45.65;;
39454;SDS011;25155;41.890;23.446;2024-01-11T06:47:35;118.45;;;70.03;;
39454;SDS011;25155;41.890;23.446;2024-01-11T06:50:03;105.82;;;64.45;;
39454;SDS011;25155;41.890;23.446;2024-01-11T06:52:31;119.88;;;67.57;;
39454;SDS011;25155;41.890;23.446;2024-01-11T06:54:58;93.18;;;56.22;;
39454;SDS011;25155;41.890;23.446;2024-01-11T06:57:26;78.95;;;48.58;;
39454;SDS011;25155;41.890;23.446;2024-01-11T06:59:54;73.03;;;44.05;;
39454;SDS011;25155;41.890;23.446;2024-01-11T07:02:22;53.65;;;32.85;;
39454;SDS011;25155;41.890;23.446;2024-01-11T07:04:49;64.85;;;41.63;;
39454;SDS011;25155;41.890;23.446;2024-01-11T07:07:16;67.97;;;41.88;;
39454;SDS011;25155;41.890;23.446;2024-01-11T07:09:43;76.45;;;43.03;;
39454;SDS011;25155;41.890;23.446;2024-01-11T07:12:10;82.60;;;48.35;;
39454;SDS011;25155;41.890;23.446;2024-01-11T07:14:37;68.00;;;40.80;;
39454;SDS011;25155;41.890;23.446;2024-01-11T07:17:06;58.35;;;36.75;;
39454;SDS011;25155;41.890;23.446;2024-01-11T07:19:33;56.85;;;35.50;;
39454;SDS011;25155;41.890;23.446;2024-01-11T07:22:00;68.18;;;40.10;;
39454;SDS011;25155;41.890;23.446;2024-01-11T07:24:27;63.53;;;36.95;;
39454;SDS011;25155;41.890;23.446;2024-01-11T07:27:02;73.30;;;40.15;;
39454;SDS011;25155;41.890;23.446;2024-01-11T07:29:30;61.42;;;34.53;;
39454;SDS011;25155;41.890;23.446;2024-01-11T07:31:57;53.35;;;31.02;;
39454;SDS011;25155;41.890;23.446;2024-01-11T07:34:25;43.22;;;26.23;;
39454;SDS011;25155;41.890;23.446;2024-01-11T07:36:52;35.50;;;21.48;;
39454;SDS011;25155;41.890;23.446;2024-01-11T07:39:20;64.03;;;37.20;;
39454;SDS011;25155;41.890;23.446;2024-01-11T07:41:48;68.43;;;39.55;;
39454;SDS011;25155;41.890;23.446;2024-01-11T07:44:15;77.72;;;43.95;;
39454;SDS011;25155;41.890;23.446;2024-01-11T07:46:42;58.65;;;34.70;;
39454;SDS011;25155;41.890;23.446;2024-01-11T07:49:09;49.15;;;29.42;;
39454;SDS011;25155;41.890;23.446;2024-01-11T07:51:38;51.85;;;31.17;;
39454;SDS011;25155;41.890;23.446;2024-01-11T07:54:05;49.80;;;29.70;;
39454;SDS011;25155;41.890;23.446;2024-01-11T07:56:32;62.55;;;37.05;;
39454;SDS011;25155;41.890;23.446;2024-01-11T07:59:00;51.92;;;32.22;;
39454;SDS011;25155;41.890;23.446;2024-01-11T08:01:27;86.75;;;51.70;;
39454;SDS011;25155;41.890;23.446;2024-01-11T08:03:54;77.32;;;45.33;;
39454;SDS011;25155;41.890;23.446;2024-01-11T08:06:21;88.43;;;52.95;;
39454;SDS011;25155;41.890;23.446;2024-01-11T08:08:50;72.13;;;44.78;;
39454;SDS011;25155;41.890;23.446;2024-01-11T08:11:18;65.35;;;39.25;;
39454;SDS011;25155;41.890;23.446;2024-01-11T08:13:45;53.53;;;33.50;;
39454;SDS011;25155;41.890;23.446;2024-01-11T08:16:15;74.75;;;46.15;;
39454;SDS011;25155;41.890;23.446;2024-01-11T08:18:43;65.23;;;41.57;;
39454;SDS011;25155;41.890;23.446;2024-01-11T08:21:11;85.53;;;51.42;;
39454;SDS011;25155;41.890;23.446;2024-01-11T08:23:40;81.45;;;50.03;;
39454;SDS011;25155;41.890;23.446;2024-01-11T08:26:12;75.90;;;44.30;;
39454;SDS011;25155;41.890;23.446;2024-01-11T08:28:40;56.47;;;34.25;;
39454;SDS011;25155;41.890;23.446;2024-01-11T08:31:07;58.63;;;34.28;;
39454;SDS011;25155;41.890;23.446;2024-01-11T08:33:34;70.53;;;43.80;;
39454;SDS011;25155;41.890;23.446;2024-01-11T08:36:02;61.20;;;38.25;;
39454;SDS011;25155;41.890;23.446;2024-01-11T08:38:30;49.05;;;31.83;;
39454;SDS011;25155;41.890;23.446;2024-01-11T08:40:57;74.80;;;47.88;;
39454;SDS011;25155;41.890;23.446;2024-01-11T08:43:26;62.78;;;39.67;;
39454;SDS011;25155;41.890;23.446;2024-01-11T08:45:53;76.95;;;46.45;;
39454;SDS011;25155;41.890;23.446;2024-01-11T08:48:22;73.30;;;45.78;;
39454;SDS011;25155;41.890;23.446;2024-01-11T08:50:49;66.65;;;42.70;;
39454;SDS011;25155;41.890;23.446;2024-01-11T08:53:17;53.78;;;35.13;;
39454;SDS011;25155;41.890;23.446;2024-01-11T08:55:44;43.70;;;28.85;;
39454;SDS011;25155;41.890;23.446;2024-01-11T08:58:11;44.45;;;29.77;;
39454;SDS011;25155;41.890;23.446;2024-01-11T09:00:40;49.65;;;31.60;;
39454;SDS011;25155;41.890;23.446;2024-01-11T09:03:07;58.35;;;39.10;;
39454;SDS011;25155;41.890;23.446;2024-01-11T09:05:34;54.80;;;35.25;;
39454;SDS011;25155;41.890;23.446;2024-01-11T09:08:01;48.60;;;31.10;;
39454;SDS011;25155;41.890;23.446;2024-01-11T09:10:32;46.10;;;29.13;;
39454;SDS011;25155;41.890;23.446;2024-01-11T09:13:00;43.80;;;28.80;;
39454;SDS011;25155;41.890;23.446;2024-01-11T09:15:27;47.83;;;30.35;;
39454;SDS011;25155;41.890;23.446;2024-01-11T09:17:56;45.15;;;29.33;;
39454;SDS011;25155;41.890;23.446;2024-01-11T09:20:23;43.05;;;27.50;;
39454;SDS011;25155;41.890;23.446;2024-01-11T09:22:50;36.80;;;24.55;;
39454;SDS011;25155;41.890;23.446;2024-01-11T09:25:18;39.08;;;26.55;;
39454;SDS011;25155;41.890;23.446;2024-01-11T09:27:45;27.98;;;18.95;;
39454;SDS011;25155;41.890;23.446;2024-01-11T09:30:12;42.88;;;27.60;;
39454;SDS011;25155;41.890;23.446;2024-01-11T09:32:40;29.95;;;19.25;;
39454;SDS011;25155;41.890;23.446;2024-01-11T09:35:08;25.55;;;18.17;;
39454;SDS011;25155;41.890;23.446;2024-01-11T09:37:36;26.13;;;17.80;;
39454;SDS011;25155;41.890;23.446;2024-01-11T09:40:03;24.13;;;15.68;;
39454;SDS011;25155;41.890;23.446;2024-01-11T09:42:35;20.25;;;13.93;;
39454;SDS011;25155;41.890;23.446;2024-01-11T09:45:03;22.58;;;14.00;;
39454;SDS011;25155;41.890;23.446;2024-01-11T09:47:35;16.85;;;11.88;;
39454;SDS011;25155;41.890;23.446;2024-01-11T09:50:03;19.30;;;12.35;;
39454;SDS011;25155;41.890;23.446;2024-01-11T09:52:32;15.93;;;10.60;;
39454;SDS011;25155;41.890;23.446;2024-01-11T09:54:59;18.85;;;12.13;;
39454;SDS011;25155;41.890;23.446;2024-01-11T09:57:28;16.90;;;10.20;;
39454;SDS011;25155;41.890;23.446;2024-01-11T09:59:57;22.55;;;14.30;;
39454;SDS011;25155;41.890;23.446;2024-01-11T10:02:25;22.15;;;15.23;;
39454;SDS011;25155;41.890;23.446;2024-01-11T10:04:53;22.30;;;15.13;;
39454;SDS011;25155;41.890;23.446;2024-01-11T10:07:21;21.92;;;12.55;;
39454;SDS011;25155;41.890;23.446;2024-01-11T10:09:51;23.48;;;13.95;;
39454;SDS011;25155;41.890;23.446;2024-01-11T10:12:18;21.10;;;13.65;;
39454;SDS011;25155;41.890;23.446;2024-01-11T10:14:50;20.38;;;12.93;;
39454;SDS011;25155;41.890;23.446;2024-01-11T10:17:17;15.25;;;9.68;;
39454;SDS011;25155;41.890;23.446;2024-01-11T10:19:45;21.42;;;11.80;;
39454;SDS011;25155;41.890;23.446;2024-01-11T10:22:12;26.35;;;17.30;;
39454;SDS011;25155;41.890;23.446;2024-01-11T10:24:42;30.80;;;18.63;;
39454;SDS011;25155;41.890;23.446;2024-01-11T10:27:11;24.33;;;16.77;;
39454;SDS011;25155;41.890;23.446;2024-01-11T10:29:38;26.25;;;16.60;;
39454;SDS011;25155;41.890;23.446;2024-01-11T10:32:05;25.75;;;16.75;;
39454;SDS011;25155;41.890;23.446;2024-01-11T10:34:33;26.77;;;16.15;;
39454;SDS011;25155;41.890;23.446;2024-01-11T10:37:00;21.92;;;14.82;;
39454;SDS011;25155;41.890;23.446;2024-01-11T10:39:27;23.55;;;15.48;;
39454;SDS011;25155;41.890;23.446;2024-01-11T10:41:58;21.75;;;14.15;;
39454;SDS011;25155;41.890;23.446;2024-01-11T10:44:33;25.55;;;15.95;;
39454;SDS011;25155;41.890;23.446;2024-01-11T10:47:02;21.10;;;14.38;;
39454;SDS011;25155;41.890;23.446;2024-01-11T10:49:32;18.80;;;12.70;;
39454;SDS011;25155;41.890;23.446;2024-01-11T10:52:03;14.43;;;10.63;;
39454;SDS011;25155;41.890;23.446;2024-01-11T10:54:34;16.75;;;12.60;;
39454;SDS011;25155;41.890;23.446;2024-01-11T10:57:02;16.55;;;12.43;;
39454;SDS011;25155;41.890;23.446;2024-01-11T10:59:31;14.32;;;10.15;;
39454;SDS011;25155;41.890;23.446;2024-01-11T11:02:02;15.15;;;10.63;;
39454;SDS011;25155;41.890;23.446;2024-01-11T11:04:36;12.27;;;8.23;;
39454;SDS011;25155;41.890;23.446;2024-01-11T11:07:05;10.10;;;7.43;;
39454;SDS011;25155;41.890;23.446;2024-01-11T11:09:34;14.15;;;8.43;;
39454;SDS011;25155;41.890;23.446;2024-01-11T11:12:02;10.55;;;7.30;;
39454;SDS011;25155;41.890;23.446;2024-01-11T11:14:32;10.98;;;7.38;;
39454;SDS011;25155;41.890;23.446;2024-01-11T11:17:03;11.90;;;8.18;;
39454;SDS011;25155;41.890;23.446;2024-01-11T11:19:32;10.27;;;7.30;;
39454;SDS011;25155;41.890;23.446;2024-01-11T11:22:00;10.77;;;8.00;;
39454;SDS011;25155;41.890;23.446;2024-01-11T11:24:32;12.00;;;7.38;;
39454;SDS011;25155;41.890;23.446;2024-01-11T11:27:00;7.97;;;5.53;;
39454;SDS011;25155;41.890;23.446;2024-01-11T11:29:28;11.77;;;8.52;;
39454;SDS011;25155;41.890;23.446;2024-01-11T11:31:56;11.10;;;7.53;;
39454;SDS011;25155;41.890;23.446;2024-01-11T11:37:09;8.85;;;5.85;;
39454;SDS011;25155;41.890;23.446;2024-01-11T11:39:37;7.97;;;5.03;;
39454;SDS011;25155;41.890;23.446;2024-01-11T11:42:04;6.75;;;4.20;;
39454;SDS011;25155;41.890;23.446;2024-01-11T11:44:33;6.28;;;3.83;;
39454;SDS011;25155;41.890;23.446;2024-01-11T11:47:18;6.30;;;3.75;;
39454;SDS011;25155;41.890;23.446;2024-01-11T11:49:59;7.43;;;3.45;;
39454;SDS011;25155;41.890;23.446;2024-01-11T11:52:32;5.03;;;3.03;;
39454;SDS011;25155;41.890;23.446;2024-01-11T11:55:00;4.95;;;3.10;;
39454;SDS011;25155;41.890;23.446;2024-01-11T11:57:28;5.93;;;3.70;;
39454;SDS011;25155;41.890;23.446;2024-01-11T11:59:56;4.95;;;3.00;;
39454;SDS011;25155;41.890;23.446;2024-01-11T12:02:25;4.80;;;2.97;;
39454;SDS011;25155;41.890;23.446;2024-01-11T12:04:53;4.57;;;3.03;;
39454;SDS011;25155;41.890;23.446;2024-01-11T12:07:22;4.03;;;2.80;;
39454;SDS011;25155;41.890;23.446;2024-01-11T12:09:50;4.70;;;2.95;;
39454;SDS011;25155;41.890;23.446;2024-01-11T12:12:18;3.80;;;2.60;;
39454;SDS011;25155;41.890;23.446;2024-01-11T12:14:46;4.50;;;2.70;;
39454;SDS011;25155;41.890;23.446;2024-01-11T12:17:14;3.83;;;2.33;;
39454;SDS011;25155;41.890;23.446;2024-01-11T12:19:41;4.25;;;2.53;;
39454;SDS011;25155;41.890;23.446;2024-01-11T12:22:08;4.93;;;2.90;;
39454;SDS011;25155;41.890;23.446;2024-01-11T12:24:37;5.00;;;3.00;;
39454;SDS011;25155;41.890;23.446;2024-01-11T12:27:04;4.80;;;2.63;;
39454;SDS011;25155;41.890;23.446;2024-01-11T12:29:32;4.97;;;2.85;;
39454;SDS011;25155;41.890;23.446;2024-01-11T12:31:59;4.50;;;2.92;;
39454;SDS011;25155;41.890;23.446;2024-01-11T12:34:26;4.60;;;3.10;;
39454;SDS011;25155;41.890;23.446;2024-01-11T12:36:56;4.35;;;2.50;;
39454;SDS011;25155;41.890;23.446;2024-01-11T12:39:26;3.67;;;2.50;;
39454;SDS011;25155;41.890;23.446;2024-01-11T12:41:55;4.88;;;2.92;;
39454;SDS011;25155;41.890;23.446;2024-01-11T12:44:23;5.05;;;3.00;;
39454;SDS011;25155;41.890;23.446;2024-01-11T12:46:51;4.88;;;2.90;;
39454;SDS011;25155;41.890;23.446;2024-01-11T12:49:18;5.05;;;3.33;;
39454;SDS011;25155;41.890;23.446;2024-01-11T12:51:46;4.30;;;2.50;;
39454;SDS011;25155;41.890;23.446;2024-01-11T12:54:13;5.40;;;3.40;;
39454;SDS011;25155;41.890;23.446;2024-01-11T12:56:44;5.38;;;3.20;;
39454;SDS011;25155;41.890;23.446;2024-01-11T12:59:13;6.18;;;3.97;;
39454;SDS011;25155;41.890;23.446;2024-01-11T13:01:41;4.28;;;2.78;;
39454;SDS011;25155;41.890;23.446;2024-01-11T13:04:09;4.18;;;2.63;;
39454;SDS011;25155;41.890;23.446;2024-01-11T13:06:36;4.97;;;3.00;;
39454;SDS011;25155;41.890;23.446;2024-01-11T13:09:04;6.45;;;3.40;;
39454;SDS011;25155;41.890;23.446;2024-01-11T13:11:33;11.93;;;8.23;;
39454;SDS011;25155;41.890;23.446;2024-01-11T13:14:00;14.07;;;9.13;;
39454;SDS011;25155;41.890;23.446;2024-01-11T13:16:33;12.40;;;8.48;;
39454;SDS011;25155;41.890;23.446;2024-01-11T13:19:00;8.15;;;5.65;;
39454;SDS011;25155;41.890;23.446;2024-01-11T13:21:27;7.32;;;4.53;;
39454;SDS011;25155;41.890;23.446;2024-01-11T13:23:54;10.90;;;7.05;;
39454;SDS011;25155;41.890;23.446;2024-01-11T13:26:22;12.07;;;7.63;;
39454;SDS011;25155;41.890;23.446;2024-01-11T13:28:50;10.15;;;7.00;;
39454;SDS011;25155;41.890;23.446;2024-01-11T13:31:18;9.68;;;4.43;;
39454;SDS011;25155;41.890;23.446;2024-01-11T13:33:47;9.20;;;6.22;;
39454;SDS011;25155;41.890;23.446;2024-01-11T13:36:14;8.45;;;5.57;;
39454;SDS011;25155;41.890;23.446;2024-01-11T13:38:41;9.57;;;6.15;;
39454;SDS011;25155;41.890;23.446;2024-01-11T13:41:09;8.52;;;5.72;;
39454;SDS011;25155;41.890;23.446;2024-01-11T13:43:36;7.68;;;5.00;;
39454;SDS011;25155;41.890;23.446;2024-01-11T13:46:03;6.68;;;3.90;;
39454;SDS011;25155;41.890;23.446;2024-01-11T13:48:30;6.38;;;3.78;;
39454;SDS011;25155;41.890;23.446;2024-01-11T13:50:59;6.15;;;3.60;;
39454;SDS011;25155;41.890;23.446;2024-01-11T13:53:28;4.68;;;3.00;;
39454;SDS011;25155;41.890;23.446;2024-01-11T13:55:56;4.78;;;2.60;;
39454;SDS011;25155;41.890;23.446;2024-01-11T13:58:23;4.95;;;3.03;;
39454;SDS011;25155;41.890;23.446;2024-01-11T14:00:50;4.53;;;3.13;;
39454;SDS011;25155;41.890;23.446;2024-01-11T14:03:17;6.00;;;3.60;;
39454;SDS011;25155;41.890;23.446;2024-01-11T14:05:45;7.40;;;3.67;;
39454;SDS011;25155;41.890;23.446;2024-01-11T14:08:14;6.30;;;3.83;;
39454;SDS011;25155;41.890;23.446;2024-01-11T14:10:41;6.30;;;3.70;;
39454;SDS011;25155;41.890;23.446;2024-01-11T14:13:08;4.60;;;2.72;;
39454;SDS011;25155;41.890;23.446;2024-01-11T14:15:35;4.03;;;2.25;;
39454;SDS011;25155;41.890;23.446;2024-01-11T14:18:03;8.88;;;4.03;;
39454;SDS011;25155;41.890;23.446;2024-01-11T14:20:33;6.40;;;4.03;;
39454;SDS011;25155;41.890;23.446;2024-01-11T14:23:00;7.15;;;4.30;;
39454;SDS011;25155;41.890;23.446;2024-01-11T14:25:29;6.45;;;3.97;;
39454;SDS011;25155;41.890;23.446;2024-01-11T14:27:56;7.80;;;4.40;;